sensor_id;sensor_type;location;lat;lon;timestamp;P1;durP1;ratioP1;P2;durP2;ratioP2
51981;SDS011;37998;53.416;6.730;2024-03-25T00:01:56;33.88;;;6.93;;
51981;SDS011;37998;53.416;6.730;2024-03-25T00:04:22;23.45;;;5.78;;
51981;SDS011;37998;53.416;6.730;2024-03-25T00:06:49;15.65;;;5.30;;
51981;SDS011;37998;53.416;6.730;2024-03-25T00:09:17;23.25;;;4.05;;
51981;SDS011;37998;53.416;6.730;2024-03-25T00:11:43;19.65;;;3.92;;
51981;SDS011;37998;53.416;6.730;2024-03-25T00:14:12;26.45;;;4.28;;
51981;SDS011;37998;53.416;6.730;2024-03-25T00:16:38;16.00;;;3.28;;
51981;SDS011;37998;53.416;6.730;2024-03-25T00:19:05;18.55;;;4.32;;
51981;SDS011;37998;53.416;6.730;2024-03-25T00:21:31;29.67;;;4.22;;
51981;SDS011;37998;53.416;6.730;2024-03-25T00:23:58;18.08;;;4.75;;
51981;SDS011;37998;53.416;6.730;2024-03-25T00:26:26;21.02;;;3.65;;
51981;SDS011;37998;53.416;6.730;2024-03-25T00:28:52;18.27;;;4.25;;
51981;SDS011;37998;53.416;6.730;2024-03-25T00:31:19;29.52;;;4.45;;
51981;SDS011;37998;53.416;6.730;2024-03-25T00:33:45;25.65;;;4.40;;
51981;SDS011;37998;53.416;6.730;2024-03-25T00:36:12;21.08;;;4.55;;
51981;SDS011;37998;53.416;6.730;2024-03-25T00:38:42;20.20;;;3.90;;
51981;SDS011;37998;53.416;6.730;2024-03-25T00:41:09;17.33;;;4.65;;
51981;SDS011;37998;53.416;6.730;2024-03-25T00:43:35;22.77;;;4.55;;
51981;SDS011;37998;53.416;6.730;2024-03-25T00:46:02;19.67;;;4.22;;
51981;SDS011;37998;53.416;6.730;2024-03-25T00:48:30;15.07;;;3.65;;
51981;SDS011;37998;53.416;6.730;2024-03-25T00:50:57;23.00;;;5.07;;
51981;SDS011;37998;53.416;6.730;2024-03-25T00:53:24;23.30;;;4.65;;
51981;SDS011;37998;53.416;6.730;2024-03-25T00:55:51;21.45;;;3.63;;
51981;SDS011;37998;53.416;6.730;2024-03-25T00:58:17;17.02;;;4.68;;
51981;SDS011;37998;53.416;6.730;2024-03-25T01:00:45;18.25;;;3.72;;
51981;SDS011;37998;53.416;6.730;2024-03-25T01:03:11;16.85;;;4.05;;
51981;SDS011;37998;53.416;6.730;2024-03-25T01:05:37;12.43;;;3.17;;
51981;SDS011;37998;53.416;6.730;2024-03-25T01:08:03;13.95;;;3.60;;
51981;SDS011;37998;53.416;6.730;2024-03-25T01:10:30;9.80;;;2.88;;
51981;SDS011;37998;53.416;6.730;2024-03-25T01:12:57;16.65;;;3.30;;
51981;SDS011;37998;53.416;6.730;2024-03-25T01:15:26;7.80;;;2.60;;
51981;SDS011;37998;53.416;6.730;2024-03-25T01:17:55;17.33;;;2.97;;
51981;SDS011;37998;53.416;6.730;2024-03-25T01:20:22;10.25;;;3.05;;
51981;SDS011;37998;53.416;6.730;2024-03-25T01:22:49;12.75;;;2.83;;
51981;SDS011;37998;53.416;6.730;2024-03-25T01:25:16;14.25;;;3.55;;
51981;SDS011;37998;53.416;6.730;2024-03-25T01:27:42;18.13;;;3.45;;
51981;SDS011;37998;53.416;6.730;2024-03-25T01:30:09;10.27;;;2.80;;
51981;SDS011;37998;53.416;6.730;2024-03-25T01:32:36;15.05;;;3.15;;
51981;SDS011;37998;53.416;6.730;2024-03-25T01:35:03;11.90;;;3.22;;
51981;SDS011;37998;53.416;6.730;2024-03-25T01:37:32;18.55;;;4.55;;
51981;SDS011;37998;53.416;6.730;2024-03-25T01:39:58;13.98;;;3.40;;
51981;SDS011;37998;53.416;6.730;2024-03-25T01:42:24;11.80;;;3.15;;
51981;SDS011;37998;53.416;6.730;2024-03-25T01:44:50;23.60;;;3.80;;
51981;SDS011;37998;53.416;6.730;2024-03-25T01:47:17;12.35;;;4.22;;
51981;SDS011;37998;53.416;6.730;2024-03-25T01:49:43;13.93;;;3.38;;
51981;SDS011;37998;53.416;6.730;2024-03-25T01:52:10;16.35;;;4.00;;
51981;SDS011;37998;53.416;6.730;2024-03-25T01:54:36;19.13;;;3.78;;
51981;SDS011;37998;53.416;6.730;2024-03-25T01:57:03;17.30;;;3.97;;
51981;SDS011;37998;53.416;6.730;2024-03-25T01:59:30;21.92;;;4.30;;
51981;SDS011;37998;53.416;6.730;2024-03-25T02:01:56;21.48;;;5.63;;
51981;SDS011;37998;53.416;6.730;2024-03-25T02:04:23;20.15;;;4.45;;
51981;SDS011;37998;53.416;6.730;2024-03-25T02:06:51;22.83;;;4.47;;
51981;SDS011;37998;53.416;6.730;2024-03-25T02:09:17;19.95;;;4.50;;
51981;SDS011;37998;53.416;6.730;2024-03-25T02:11:44;19.38;;;4.20;;
51981;SDS011;37998;53.416;6.730;2024-03-25T02:14:11;22.65;;;3.28;;
51981;SDS011;37998;53.416;6.730;2024-03-25T02:16:38;15.88;;;2.70;;
51981;SDS011;37998;53.416;6.730;2024-03-25T02:19:05;17.13;;;3.55;;
51981;SDS011;37998;53.416;6.730;2024-03-25T02:21:32;18.20;;;3.00;;
51981;SDS011;37998;53.416;6.730;2024-03-25T02:23:59;14.70;;;3.42;;
51981;SDS011;37998;53.416;6.730;2024-03-25T02:26:29;17.92;;;3.22;;
51981;SDS011;37998;53.416;6.730;2024-03-25T02:28:56;14.45;;;2.97;;
51981;SDS011;37998;53.416;6.730;2024-03-25T02:31:22;16.98;;;2.97;;
51981;SDS011;37998;53.416;6.730;2024-03-25T02:33:49;14.07;;;2.88;;
51981;SDS011;37998;53.416;6.730;2024-03-25T02:36:16;15.05;;;3.10;;
51981;SDS011;37998;53.416;6.730;2024-03-25T02:38:42;14.15;;;4.07;;
51981;SDS011;37998;53.416;6.730;2024-03-25T02:41:09;13.68;;;2.83;;
51981;SDS011;37998;53.416;6.730;2024-03-25T02:43:36;13.77;;;3.38;;
51981;SDS011;37998;53.416;6.730;2024-03-25T02:46:02;19.88;;;4.20;;
51981;SDS011;37998;53.416;6.730;2024-03-25T02:48:28;14.95;;;2.83;;
51981;SDS011;37998;53.416;6.730;2024-03-25T02:50:54;13.98;;;2.80;;
51981;SDS011;37998;53.416;6.730;2024-03-25T02:53:20;16.48;;;3.13;;
51981;SDS011;37998;53.416;6.730;2024-03-25T02:55:46;9.60;;;3.00;;
51981;SDS011;37998;53.416;6.730;2024-03-25T02:58:12;14.20;;;3.08;;
51981;SDS011;37998;53.416;6.730;2024-03-25T03:00:37;12.00;;;3.42;;
51981;SDS011;37998;53.416;6.730;2024-03-25T03:03:03;13.80;;;3.40;;
51981;SDS011;37998;53.416;6.730;2024-03-25T03:05:29;17.83;;;3.50;;
51981;SDS011;37998;53.416;6.730;2024-03-25T03:07:55;13.75;;;3.35;;
51981;SDS011;37998;53.416;6.730;2024-03-25T03:10:21;13.82;;;2.85;;
51981;SDS011;37998;53.416;6.730;2024-03-25T03:12:47;20.92;;;3.60;;
51981;SDS011;37998;53.416;6.730;2024-03-25T03:15:13;14.55;;;2.60;;
51981;SDS011;37998;53.416;6.730;2024-03-25T03:17:40;19.20;;;3.15;;
51981;SDS011;37998;53.416;6.730;2024-03-25T03:20:06;13.23;;;3.40;;
51981;SDS011;37998;53.416;6.730;2024-03-25T03:22:32;14.43;;;3.05;;
51981;SDS011;37998;53.416;6.730;2024-03-25T03:24:58;19.63;;;3.47;;
51981;SDS011;37998;53.416;6.730;2024-03-25T03:27:24;14.82;;;3.45;;
51981;SDS011;37998;53.416;6.730;2024-03-25T03:29:50;25.75;;;3.78;;
51981;SDS011;37998;53.416;6.730;2024-03-25T03:32:16;13.38;;;2.95;;
51981;SDS011;37998;53.416;6.730;2024-03-25T03:34:42;20.38;;;3.25;;
51981;SDS011;37998;53.416;6.730;2024-03-25T03:37:08;14.60;;;3.17;;
51981;SDS011;37998;53.416;6.730;2024-03-25T03:39:34;13.85;;;3.67;;
51981;SDS011;37998;53.416;6.730;2024-03-25T03:42:00;10.95;;;3.85;;
51981;SDS011;37998;53.416;6.730;2024-03-25T03:44:26;13.48;;;3.42;;
51981;SDS011;37998;53.416;6.730;2024-03-25T03:46:52;16.23;;;3.17;;
51981;SDS011;37998;53.416;6.730;2024-03-25T03:49:18;18.27;;;3.10;;
51981;SDS011;37998;53.416;6.730;2024-03-25T03:51:44;14.15;;;2.80;;
51981;SDS011;37998;53.416;6.730;2024-03-25T03:54:10;10.95;;;3.10;;
51981;SDS011;37998;53.416;6.730;2024-03-25T03:56:38;19.77;;;3.13;;
51981;SDS011;37998;53.416;6.730;2024-03-25T03:59:07;13.48;;;3.08;;
51981;SDS011;37998;53.416;6.730;2024-03-25T04:01:33;21.02;;;2.88;;
51981;SDS011;37998;53.416;6.730;2024-03-25T04:03:59;17.05;;;2.78;;
51981;SDS011;37998;53.416;6.730;2024-03-25T04:06:25;12.68;;;2.92;;
51981;SDS011;37998;53.416;6.730;2024-03-25T04:08:50;12.80;;;3.03;;
51981;SDS011;37998;53.416;6.730;2024-03-25T04:11:16;11.13;;;2.95;;
51981;SDS011;37998;53.416;6.730;2024-03-25T04:13:42;13.15;;;3.00;;
51981;SDS011;37998;53.416;6.730;2024-03-25T04:16:08;16.20;;;2.97;;
51981;SDS011;37998;53.416;6.730;2024-03-25T04:18:34;13.93;;;3.20;;
51981;SDS011;37998;53.416;6.730;2024-03-25T04:21:00;14.63;;;2.65;;
51981;SDS011;37998;53.416;6.730;2024-03-25T04:23:26;15.82;;;3.25;;
51981;SDS011;37998;53.416;6.730;2024-03-25T04:25:52;15.15;;;3.00;;
51981;SDS011;37998;53.416;6.730;2024-03-25T04:28:19;19.40;;;4.32;;
51981;SDS011;37998;53.416;6.730;2024-03-25T04:30:52;14.15;;;3.40;;
51981;SDS011;37998;53.416;6.730;2024-03-25T04:33:18;13.38;;;3.08;;
51981;SDS011;37998;53.416;6.730;2024-03-25T04:35:45;19.38;;;3.72;;
51981;SDS011;37998;53.416;6.730;2024-03-25T04:38:12;13.95;;;3.67;;
51981;SDS011;37998;53.416;6.730;2024-03-25T04:40:38;15.77;;;3.35;;
51981;SDS011;37998;53.416;6.730;2024-03-25T04:43:04;15.73;;;3.22;;
51981;SDS011;37998;53.416;6.730;2024-03-25T04:45:31;11.23;;;2.42;;
51981;SDS011;37998;53.416;6.730;2024-03-25T04:47:57;17.83;;;2.95;;
51981;SDS011;37998;53.416;6.730;2024-03-25T04:50:23;10.93;;;2.45;;
51981;SDS011;37998;53.416;6.730;2024-03-25T04:52:49;10.30;;;2.65;;
51981;SDS011;37998;53.416;6.730;2024-03-25T04:55:15;10.98;;;2.17;;
51981;SDS011;37998;53.416;6.730;2024-03-25T04:57:41;16.20;;;2.88;;
51981;SDS011;37998;53.416;6.730;2024-03-25T05:00:08;11.20;;;3.25;;
51981;SDS011;37998;53.416;6.730;2024-03-25T05:02:37;14.10;;;2.95;;
51981;SDS011;37998;53.416;6.730;2024-03-25T05:05:03;13.63;;;3.13;;
51981;SDS011;37998;53.416;6.730;2024-03-25T05:07:33;13.77;;;3.25;;
51981;SDS011;37998;53.416;6.730;2024-03-25T05:09:59;11.32;;;2.95;;
51981;SDS011;37998;53.416;6.730;2024-03-25T05:12:25;14.95;;;4.07;;
51981;SDS011;37998;53.416;6.730;2024-03-25T05:14:56;13.30;;;3.20;;
51981;SDS011;37998;53.416;6.730;2024-03-25T05:17:22;16.83;;;3.08;;
51981;SDS011;37998;53.416;6.730;2024-03-25T05:19:48;13.13;;;3.03;;
51981;SDS011;37998;53.416;6.730;2024-03-25T05:22:14;13.50;;;2.90;;
51981;SDS011;37998;53.416;6.730;2024-03-25T05:24:41;13.77;;;2.92;;
51981;SDS011;37998;53.416;6.730;2024-03-25T05:27:07;13.45;;;3.22;;
51981;SDS011;37998;53.416;6.730;2024-03-25T05:29:33;17.05;;;2.90;;
51981;SDS011;37998;53.416;6.730;2024-03-25T05:32:00;15.13;;;3.00;;
51981;SDS011;37998;53.416;6.730;2024-03-25T05:34:27;15.63;;;3.83;;
51981;SDS011;37998;53.416;6.730;2024-03-25T05:36:54;14.20;;;3.28;;
51981;SDS011;37998;53.416;6.730;2024-03-25T05:39:22;17.45;;;3.00;;
51981;SDS011;37998;53.416;6.730;2024-03-25T05:41:48;12.13;;;3.55;;
51981;SDS011;37998;53.416;6.730;2024-03-25T05:44:17;13.73;;;3.63;;
51981;SDS011;37998;53.416;6.730;2024-03-25T05:46:43;13.52;;;2.95;;
51981;SDS011;37998;53.416;6.730;2024-03-25T05:49:10;10.13;;;2.67;;
51981;SDS011;37998;53.416;6.730;2024-03-25T05:51:36;12.48;;;3.20;;
51981;SDS011;37998;53.416;6.730;2024-03-25T05:54:04;11.85;;;2.88;;
51981;SDS011;37998;53.416;6.730;2024-03-25T05:56:30;14.30;;;2.90;;
51981;SDS011;37998;53.416;6.730;2024-03-25T05:58:56;9.82;;;2.40;;
51981;SDS011;37998;53.416;6.730;2024-03-25T06:01:23;11.93;;;2.75;;
51981;SDS011;37998;53.416;6.730;2024-03-25T06:03:49;9.82;;;2.55;;
51981;SDS011;37998;53.416;6.730;2024-03-25T06:06:15;11.88;;;2.50;;
51981;SDS011;37998;53.416;6.730;2024-03-25T06:08:41;8.20;;;2.03;;
51981;SDS011;37998;53.416;6.730;2024-03-25T06:11:06;10.38;;;2.28;;
51981;SDS011;37998;53.416;6.730;2024-03-25T06:13:32;7.80;;;1.88;;
51981;SDS011;37998;53.416;6.730;2024-03-25T06:15:58;8.40;;;2.10;;
51981;SDS011;37998;53.416;6.730;2024-03-25T06:18:25;9.52;;;2.40;;
51981;SDS011;37998;53.416;6.730;2024-03-25T06:20:51;7.50;;;1.65;;
51981;SDS011;37998;53.416;6.730;2024-03-25T06:23:25;11.35;;;2.42;;
51981;SDS011;37998;53.416;6.730;2024-03-25T06:25:52;9.93;;;2.00;;
51981;SDS011;37998;53.416;6.730;2024-03-25T06:28:19;10.63;;;2.47;;
51981;SDS011;37998;53.416;6.730;2024-03-25T06:30:46;6.78;;;2.05;;
51981;SDS011;37998;53.416;6.730;2024-03-25T06:33:38;11.95;;;2.30;;
51981;SDS011;37998;53.416;6.730;2024-03-25T06:36:23;13.45;;;3.03;;
51981;SDS011;37998;53.416;6.730;2024-03-25T06:38:48;10.80;;;2.90;;
51981;SDS011;37998;53.416;6.730;2024-03-25T06:41:14;9.50;;;3.38;;
51981;SDS011;37998;53.416;6.730;2024-03-25T06:43:40;10.23;;;3.53;;
51981;SDS011;37998;53.416;6.730;2024-03-25T06:46:07;12.48;;;3.25;;
51981;SDS011;37998;53.416;6.730;2024-03-25T06:48:33;12.43;;;3.42;;
51981;SDS011;37998;53.416;6.730;2024-03-25T06:51:00;20.20;;;3.53;;
51981;SDS011;37998;53.416;6.730;2024-03-25T06:53:28;11.45;;;3.30;;
51981;SDS011;37998;53.416;6.730;2024-03-25T06:55:54;10.40;;;3.10;;
51981;SDS011;37998;53.416;6.730;2024-03-25T06:58:22;12.20;;;3.22;;
51981;SDS011;37998;53.416;6.730;2024-03-25T07:00:48;10.73;;;3.30;;
51981;SDS011;37998;53.416;6.730;2024-03-25T07:03:15;17.45;;;3.22;;
51981;SDS011;37998;53.416;6.730;2024-03-25T07:05:44;18.02;;;3.58;;
51981;SDS011;37998;53.416;6.730;2024-03-25T07:08:14;11.63;;;3.25;;
51981;SDS011;37998;53.416;6.730;2024-03-25T07:10:44;10.65;;;2.92;;
51981;SDS011;37998;53.416;6.730;2024-03-25T07:13:11;11.23;;;2.75;;
51981;SDS011;37998;53.416;6.730;2024-03-25T07:15:38;10.93;;;2.72;;
51981;SDS011;37998;53.416;6.730;2024-03-25T07:18:05;12.60;;;2.72;;
51981;SDS011;37998;53.416;6.730;2024-03-25T07:20:31;14.95;;;3.08;;
51981;SDS011;37998;53.416;6.730;2024-03-25T07:23:00;10.45;;;2.90;;
51981;SDS011;37998;53.416;6.730;2024-03-25T07:25:26;15.52;;;3.53;;
51981;SDS011;37998;53.416;6.730;2024-03-25T07:27:52;11.75;;;2.75;;
51981;SDS011;37998;53.416;6.730;2024-03-25T07:30:18;12.90;;;2.78;;
51981;SDS011;37998;53.416;6.730;2024-03-25T07:32:44;10.80;;;2.78;;
51981;SDS011;37998;53.416;6.730;2024-03-25T07:35:11;9.32;;;2.30;;
51981;SDS011;37998;53.416;6.730;2024-03-25T07:37:37;11.73;;;2.45;;
51981;SDS011;37998;53.416;6.730;2024-03-25T07:40:05;16.42;;;3.28;;
51981;SDS011;37998;53.416;6.730;2024-03-25T07:42:32;15.30;;;2.67;;
51981;SDS011;37998;53.416;6.730;2024-03-25T07:44:58;7.85;;;2.33;;
51981;SDS011;37998;53.416;6.730;2024-03-25T07:47:24;14.00;;;2.60;;
51981;SDS011;37998;53.416;6.730;2024-03-25T07:49:49;10.65;;;2.67;;
51981;SDS011;37998;53.416;6.730;2024-03-25T07:52:15;9.52;;;2.50;;
51981;SDS011;37998;53.416;6.730;2024-03-25T07:54:41;15.25;;;2.83;;
51981;SDS011;37998;53.416;6.730;2024-03-25T07:57:08;10.18;;;2.25;;
51981;SDS011;37998;53.416;6.730;2024-03-25T07:59:34;11.77;;;2.38;;
51981;SDS011;37998;53.416;6.730;2024-03-25T08:02:00;13.88;;;3.08;;
51981;SDS011;37998;53.416;6.730;2024-03-25T08:04:28;13.70;;;2.75;;
51981;SDS011;37998;53.416;6.730;2024-03-25T08:06:54;12.98;;;2.10;;
51981;SDS011;37998;53.416;6.730;2024-03-25T08:09:20;16.48;;;3.17;;
51981;SDS011;37998;53.416;6.730;2024-03-25T08:11:46;9.75;;;2.45;;
51981;SDS011;37998;53.416;6.730;2024-03-25T08:14:12;11.00;;;2.30;;
51981;SDS011;37998;53.416;6.730;2024-03-25T08:16:38;16.52;;;2.50;;
51981;SDS011;37998;53.416;6.730;2024-03-25T08:19:04;8.27;;;2.40;;
51981;SDS011;37998;53.416;6.730;2024-03-25T08:21:32;7.57;;;2.30;;
51981;SDS011;37998;53.416;6.730;2024-03-25T08:23:58;7.97;;;2.08;;
51981;SDS011;37998;53.416;6.730;2024-03-25T08:26:24;9.57;;;2.53;;
51981;SDS011;37998;53.416;6.730;2024-03-25T08:28:50;7.03;;;2.90;;
51981;SDS011;37998;53.416;6.730;2024-03-25T08:31:16;8.75;;;2.38;;
51981;SDS011;37998;53.416;6.730;2024-03-25T08:33:42;11.95;;;2.33;;
51981;SDS011;37998;53.416;6.730;2024-03-25T08:36:08;9.23;;;2.28;;
51981;SDS011;37998;53.416;6.730;2024-03-25T08:38:34;14.82;;;2.35;;
51981;SDS011;37998;53.416;6.730;2024-03-25T08:41:00;10.45;;;2.25;;
51981;SDS011;37998;53.416;6.730;2024-03-25T08:43:26;9.23;;;1.85;;
51981;SDS011;37998;53.416;6.730;2024-03-25T08:45:52;9.80;;;2.38;;
51981;SDS011;37998;53.416;6.730;2024-03-25T08:48:18;7.45;;;1.88;;
51981;SDS011;37998;53.416;6.730;2024-03-25T08:50:44;9.13;;;2.63;;
51981;SDS011;37998;53.416;6.730;2024-03-25T08:53:12;11.88;;;2.30;;
51981;SDS011;37998;53.416;6.730;2024-03-25T08:55:38;10.63;;;2.05;;
51981;SDS011;37998;53.416;6.730;2024-03-25T08:58:09;13.93;;;2.35;;
51981;SDS011;37998;53.416;6.730;2024-03-25T09:00:34;10.05;;;1.73;;
51981;SDS011;37998;53.416;6.730;2024-03-25T09:03:00;9.55;;;2.30;;
51981;SDS011;37998;53.416;6.730;2024-03-25T09:05:26;12.18;;;2.28;;
51981;SDS011;37998;53.416;6.730;2024-03-25T09:07:52;11.40;;;2.45;;
51981;SDS011;37998;53.416;6.730;2024-03-25T09:10:18;11.52;;;2.20;;
51981;SDS011;37998;53.416;6.730;2024-03-25T09:13:03;8.40;;;2.25;;
51981;SDS011;37998;53.416;6.730;2024-03-25T09:15:29;17.25;;;2.72;;
51981;SDS011;37998;53.416;6.730;2024-03-25T09:17:55;6.57;;;2.13;;
51981;SDS011;37998;53.416;6.730;2024-03-25T09:20:21;12.00;;;2.72;;
51981;SDS011;37998;53.416;6.730;2024-03-25T09:22:48;10.43;;;1.83;;
51981;SDS011;37998;53.416;6.730;2024-03-25T09:25:14;14.50;;;2.22;;
51981;SDS011;37998;53.416;6.730;2024-03-25T09:27:41;12.32;;;3.10;;
51981;SDS011;37998;53.416;6.730;2024-03-25T09:30:11;5.43;;;1.50;;
51981;SDS011;37998;53.416;6.730;2024-03-25T09:32:38;11.10;;;2.15;;
51981;SDS011;37998;53.416;6.730;2024-03-25T09:35:04;9.60;;;2.13;;
51981;SDS011;37998;53.416;6.730;2024-03-25T09:37:30;9.05;;;2.22;;
51981;SDS011;37998;53.416;6.730;2024-03-25T09:39:57;8.27;;;2.10;;
51981;SDS011;37998;53.416;6.730;2024-03-25T09:42:27;6.75;;;1.50;;
51981;SDS011;37998;53.416;6.730;2024-03-25T09:44:54;4.43;;;1.58;;
51981;SDS011;37998;53.416;6.730;2024-03-25T09:47:21;13.30;;;2.50;;
51981;SDS011;37998;53.416;6.730;2024-03-25T09:49:49;10.77;;;2.83;;
51981;SDS011;37998;53.416;6.730;2024-03-25T09:52:17;10.00;;;2.60;;
51981;SDS011;37998;53.416;6.730;2024-03-25T09:54:44;8.75;;;2.38;;
51981;SDS011;37998;53.416;6.730;2024-03-25T09:57:10;10.88;;;2.33;;
51981;SDS011;37998;53.416;6.730;2024-03-25T09:59:37;12.00;;;2.17;;
51981;SDS011;37998;53.416;6.730;2024-03-25T10:02:04;5.30;;;1.75;;
51981;SDS011;37998;53.416;6.730;2024-03-25T10:04:32;7.55;;;1.85;;
51981;SDS011;37998;53.416;6.730;2024-03-25T10:06:58;8.45;;;1.85;;
51981;SDS011;37998;53.416;6.730;2024-03-25T10:09:24;9.63;;;2.00;;
51981;SDS011;37998;53.416;6.730;2024-03-25T10:11:53;8.75;;;2.13;;
51981;SDS011;37998;53.416;6.730;2024-03-25T10:14:21;7.55;;;1.90;;
51981;SDS011;37998;53.416;6.730;2024-03-25T10:16:50;8.70;;;2.75;;
51981;SDS011;37998;53.416;6.730;2024-03-25T10:19:16;9.75;;;1.73;;
51981;SDS011;37998;53.416;6.730;2024-03-25T10:21:42;14.40;;;2.08;;
51981;SDS011;37998;53.416;6.730;2024-03-25T10:24:08;8.43;;;2.00;;
51981;SDS011;37998;53.416;6.730;2024-03-25T10:26:34;10.18;;;1.70;;
51981;SDS011;37998;53.416;6.730;2024-03-25T10:29:03;7.72;;;2.30;;
51981;SDS011;37998;53.416;6.730;2024-03-25T10:31:31;10.20;;;2.10;;
51981;SDS011;37998;53.416;6.730;2024-03-25T10:33:58;6.63;;;1.80;;
51981;SDS011;37998;53.416;6.730;2024-03-25T10:36:25;11.73;;;1.92;;
51981;SDS011;37998;53.416;6.730;2024-03-25T10:38:57;7.88;;;2.15;;
51981;SDS011;37998;53.416;6.730;2024-03-25T10:41:28;8.75;;;2.08;;
51981;SDS011;37998;53.416;6.730;2024-03-25T10:43:56;9.27;;;2.00;;
51981;SDS011;37998;53.416;6.730;2024-03-25T10:46:25;8.75;;;1.95;;
51981;SDS011;37998;53.416;6.730;2024-03-25T10:49:01;4.40;;;1.30;;
51981;SDS011;37998;53.416;6.730;2024-03-25T10:51:41;5.90;;;1.55;;
51981;SDS011;37998;53.416;6.730;2024-03-25T10:54:10;7.13;;;1.65;;
51981;SDS011;37998;53.416;6.730;2024-03-25T10:56:37;7.45;;;2.03;;
51981;SDS011;37998;53.416;6.730;2024-03-25T10:59:04;7.55;;;1.65;;
51981;SDS011;37998;53.416;6.730;2024-03-25T11:01:34;6.55;;;1.67;;
51981;SDS011;37998;53.416;6.730;2024-03-25T11:04:00;8.00;;;2.22;;
51981;SDS011;37998;53.416;6.730;2024-03-25T11:06:27;6.57;;;1.50;;
51981;SDS011;37998;53.416;6.730;2024-03-25T11:08:56;8.75;;;1.90;;
51981;SDS011;37998;53.416;6.730;2024-03-25T11:11:23;10.32;;;2.42;;
51981;SDS011;37998;53.416;6.730;2024-03-25T11:13:49;14.25;;;1.75;;
51981;SDS011;37998;53.416;6.730;2024-03-25T11:16:26;7.22;;;1.77;;
51981;SDS011;37998;53.416;6.730;2024-03-25T11:18:55;5.57;;;1.55;;
51981;SDS011;37998;53.416;6.730;2024-03-25T11:21:27;11.75;;;2.03;;
51981;SDS011;37998;53.416;6.730;2024-03-25T11:23:53;9.48;;;1.73;;
51981;SDS011;37998;53.416;6.730;2024-03-25T11:26:21;6.63;;;1.70;;
51981;SDS011;37998;53.416;6.730;2024-03-25T11:28:50;7.75;;;1.90;;
51981;SDS011;37998;53.416;6.730;2024-03-25T11:31:20;9.18;;;1.70;;
51981;SDS011;37998;53.416;6.730;2024-03-25T11:33:49;6.15;;;1.50;;
51981;SDS011;37998;53.416;6.730;2024-03-25T11:36:15;9.77;;;2.03;;
51981;SDS011;37998;53.416;6.730;2024-03-25T11:38:43;6.55;;;1.83;;
51981;SDS011;37998;53.416;6.730;2024-03-25T11:41:10;11.82;;;1.83;;
51981;SDS011;37998;53.416;6.730;2024-03-25T11:43:36;5.93;;;1.85;;
51981;SDS011;37998;53.416;6.730;2024-03-25T11:46:03;4.97;;;1.70;;
51981;SDS011;37998;53.416;6.730;2024-03-25T11:48:31;8.73;;;2.08;;
51981;SDS011;37998;53.416;6.730;2024-03-25T11:50:58;5.80;;;1.60;;
51981;SDS011;37998;53.416;6.730;2024-03-25T11:53:26;9.25;;;1.83;;
51981;SDS011;37998;53.416;6.730;2024-03-25T11:55:55;5.15;;;1.50;;
51981;SDS011;37998;53.416;6.730;2024-03-25T11:58:21;5.07;;;1.70;;
51981;SDS011;37998;53.416;6.730;2024-03-25T12:00:47;6.13;;;1.48;;
51981;SDS011;37998;53.416;6.730;2024-03-25T12:03:20;8.73;;;1.73;;
51981;SDS011;37998;53.416;6.730;2024-03-25T12:05:46;9.25;;;1.60;;
51981;SDS011;37998;53.416;6.730;2024-03-25T12:08:12;7.63;;;1.88;;
51981;SDS011;37998;53.416;6.730;2024-03-25T12:10:38;4.03;;;1.83;;
51981;SDS011;37998;53.416;6.730;2024-03-25T12:13:23;6.43;;;1.58;;
51981;SDS011;37998;53.416;6.730;2024-03-25T12:15:51;8.13;;;2.00;;
51981;SDS011;37998;53.416;6.730;2024-03-25T12:18:20;8.00;;;1.80;;
51981;SDS011;37998;53.416;6.730;2024-03-25T12:20:46;7.53;;;1.58;;
51981;SDS011;37998;53.416;6.730;2024-03-25T12:23:12;7.43;;;2.22;;
51981;SDS011;37998;53.416;6.730;2024-03-25T12:25:38;9.50;;;1.88;;
51981;SDS011;37998;53.416;6.730;2024-03-25T12:28:09;7.53;;;1.90;;
51981;SDS011;37998;53.416;6.730;2024-03-25T12:30:41;9.48;;;1.75;;
51981;SDS011;37998;53.416;6.730;2024-03-25T12:33:23;7.88;;;2.10;;
51981;SDS011;37998;53.416;6.730;2024-03-25T12:35:50;9.90;;;1.88;;
51981;SDS011;37998;53.416;6.730;2024-03-25T12:41:05;10.05;;;2.47;;
51981;SDS011;37998;53.416;6.730;2024-03-25T12:43:33;8.07;;;1.90;;
51981;SDS011;37998;53.416;6.730;2024-03-25T12:46:00;13.63;;;3.25;;
51981;SDS011;37998;53.416;6.730;2024-03-25T12:48:28;6.45;;;2.42;;
51981;SDS011;37998;53.416;6.730;2024-03-25T12:50:55;7.05;;;1.80;;
51981;SDS011;37998;53.416;6.730;2024-03-25T12:53:21;8.68;;;2.40;;
51981;SDS011;37998;53.416;6.730;2024-03-25T12:55:47;5.50;;;1.90;;
51981;SDS011;37998;53.416;6.730;2024-03-25T12:58:13;4.60;;;1.33;;
51981;SDS011;37998;53.416;6.730;2024-03-25T13:00:39;8.35;;;2.58;;
51981;SDS011;37998;53.416;6.730;2024-03-25T13:03:06;9.20;;;2.20;;
51981;SDS011;37998;53.416;6.730;2024-03-25T13:05:33;9.02;;;2.08;;
51981;SDS011;37998;53.416;6.730;2024-03-25T13:08:03;16.25;;;2.28;;
51981;SDS011;37998;53.416;6.730;2024-03-25T13:10:29;10.77;;;2.25;;
51981;SDS011;37998;53.416;6.730;2024-03-25T13:12:55;6.03;;;2.35;;
51981;SDS011;37998;53.416;6.730;2024-03-25T13:15:21;8.30;;;2.20;;
51981;SDS011;37998;53.416;6.730;2024-03-25T13:17:48;11.35;;;2.38;;
51981;SDS011;37998;53.416;6.730;2024-03-25T13:20:14;6.97;;;2.10;;
51981;SDS011;37998;53.416;6.730;2024-03-25T13:22:40;9.90;;;1.95;;
51981;SDS011;37998;53.416;6.730;2024-03-25T13:25:06;8.02;;;1.73;;
51981;SDS011;37998;53.416;6.730;2024-03-25T13:27:32;8.45;;;1.90;;
51981;SDS011;37998;53.416;6.730;2024-03-25T13:29:58;8.43;;;2.03;;
51981;SDS011;37998;53.416;6.730;2024-03-25T13:32:24;7.60;;;2.20;;
51981;SDS011;37998;53.416;6.730;2024-03-25T13:34:51;8.88;;;2.03;;
51981;SDS011;37998;53.416;6.730;2024-03-25T13:37:19;7.30;;;1.80;;
51981;SDS011;37998;53.416;6.730;2024-03-25T13:39:45;8.93;;;1.88;;
51981;SDS011;37998;53.416;6.730;2024-03-25T13:42:11;11.70;;;2.42;;
51981;SDS011;37998;53.416;6.730;2024-03-25T13:44:37;11.10;;;2.30;;
51981;SDS011;37998;53.416;6.730;2024-03-25T13:47:03;11.38;;;2.40;;
51981;SDS011;37998;53.416;6.730;2024-03-25T13:49:29;8.77;;;1.95;;
51981;SDS011;37998;53.416;6.730;2024-03-25T13:51:58;8.52;;;2.40;;
51981;SDS011;37998;53.416;6.730;2024-03-25T13:54:24;10.50;;;2.50;;
51981;SDS011;37998;53.416;6.730;2024-03-25T13:56:55;3.80;;;1.63;;
51981;SDS011;37998;53.416;6.730;2024-03-25T13:59:21;5.43;;;1.67;;
51981;SDS011;37998;53.416;6.730;2024-03-25T14:01:47;9.43;;;2.30;;
51981;SDS011;37998;53.416;6.730;2024-03-25T14:04:13;7.85;;;2.13;;
51981;SDS011;37998;53.416;6.730;2024-03-25T14:06:39;6.78;;;2.25;;
51981;SDS011;37998;53.416;6.730;2024-03-25T14:09:06;9.50;;;2.28;;
51981;SDS011;37998;53.416;6.730;2024-03-25T14:11:35;8.52;;;2.13;;
51981;SDS011;37998;53.416;6.730;2024-03-25T14:14:01;11.13;;;2.40;;
51981;SDS011;37998;53.416;6.730;2024-03-25T14:16:30;6.78;;;1.73;;
51981;SDS011;37998;53.416;6.730;2024-03-25T14:18:56;15.70;;;2.65;;
51981;SDS011;37998;53.416;6.730;2024-03-25T14:21:21;16.67;;;2.03;;
51981;SDS011;37998;53.416;6.730;2024-03-25T14:23:47;5.70;;;2.03;;
51981;SDS011;37998;53.416;6.730;2024-03-25T14:26:13;11.10;;;2.05;;
51981;SDS011;37998;53.416;6.730;2024-03-25T14:28:42;7.72;;;2.08;;
51981;SDS011;37998;53.416;6.730;2024-03-25T14:31:08;10.38;;;2.35;;
51981;SDS011;37998;53.416;6.730;2024-03-25T14:33:34;13.50;;;2.28;;
51981;SDS011;37998;53.416;6.730;2024-03-25T14:36:00;7.55;;;2.15;;
51981;SDS011;37998;53.416;6.730;2024-03-25T14:38:26;6.57;;;2.00;;
51981;SDS011;37998;53.416;6.730;2024-03-25T14:40:53;8.73;;;1.90;;